Time;durP1;ratioP1;P1;durP2;ratioP2;P2;SDS_P1;SDS_P2;PMS_P1;PMS_P2;Temp;Humidity;BMP_temperature;BMP_pressure;BME280_temperature;BME280_humidity;BME280_pressure;Samples;Min_cycle;Max_cycle;Signal;HPM_P1;HPM_P2
2022/04/05 00:00:24;;;;;;;0.00;0.00;;;;;;;;;;4996647;28;20288;-73
2022/04/05 00:02:50;;;;;;;0.22;0.20;;;;;;;;;;4992947;28;20054;-77
2022/04/05 00:05:17;;;;;;;0.43;0.38;;;;;;;;;;4994487;28;20053;-74
2022/04/05 00:07:43;;;;;;;0.00;0.00;;;;;;;;;;5006526;28;20017;-75
2022/04/05 00:10:10;;;;;;;0.20;0.10;;;;;;;;;;4994767;28;20132;-76
2022/04/05 00:12:36;;;;;;;0.00;0.00;;;;;;;;;;5007545;28;20029;-76
2022/04/05 00:15:05;;;;;;;0.28;0.10;;;;;;;;;;5005822;28;20494;-69
2022/04/05 00:17:32;;;;;;;2.03;0.65;;;;;;;;;;5005826;28;20112;-76
2022/04/05 00:19:58;;;;;;;1.00;0.83;;;;;;;;;;4999022;28;20018;-69
2022/04/05 00:22:25;;;;;;;0.35;0.20;;;;;;;;;;5009171;28;20018;-74
2022/04/05 00:24:51;;;;;;;0.00;0.00;;;;;;;;;;5004116;28;20022;-77
2022/04/05 00:27:17;;;;;;;0.32;0.22;;;;;;;;;;5003098;28;20561;-77
2022/04/05 00:29:44;;;;;;;0.32;0.20;;;;;;;;;;5011530;28;20021;-75
2022/04/05 00:32:10;;;;;;;0.10;0.00;;;;;;;;;;5006070;28;20021;-75
2022/04/05 00:34:36;;;;;;;0.10;0.10;;;;;;;;;;5004643;28;20317;-75
2022/04/05 00:37:02;;;;;;;0.00;0.00;;;;;;;;;;4999041;28;20034;-69
2022/04/05 00:39:29;;;;;;;0.20;0.13;;;;;;;;;;5007447;28;20038;-74
2022/04/05 00:41:56;;;;;;;0.15;0.10;;;;;;;;;;5009479;28;20010;-73
2022/04/05 00:44:22;;;;;;;0.00;0.00;;;;;;;;;;5003269;28;20419;-70
2022/04/05 00:46:49;;;;;;;0.22;0.10;;;;;;;;;;5002296;28;20027;-75
2022/04/05 00:49:17;;;;;;;0.63;0.20;;;;;;;;;;4997537;28;20065;-75
2022/04/05 00:51:43;;;;;;;0.20;0.10;;;;;;;;;;5009643;28;20327;-71
2022/04/05 00:54:10;;;;;;;0.10;0.10;;;;;;;;;;5011503;28;20038;-73
2022/04/05 00:56:37;;;;;;;0.22;0.20;;;;;;;;;;5012625;28;20069;-74
2022/04/05 00:59:04;;;;;;;0.10;0.10;;;;;;;;;;4999789;28;20027;-69
2022/04/05 01:01:31;;;;;;;0.00;0.00;;;;;;;;;;5000687;28;20313;-75
2022/04/05 01:04:15;;;;;;;0.00;0.00;;;;;;;;;;5016002;28;20050;-75
2022/04/05 01:06:44;;;;;;;0.10;0.00;;;;;;;;;;4995788;28;20380;-70
2022/04/05 01:09:10;;;;;;;;;;;;;;;;;;5008899;28;20018;-74
2022/04/05 01:11:36;;;;;;;0.13;0.13;;;;;;;;;;5000265;28;20035;-75
2022/04/05 01:14:03;;;;;;;0.17;0.08;;;;;;;;;;5015185;28;20274;-69
2022/04/05 01:16:29;;;;;;;0.50;0.40;;;;;;;;;;5000294;28;20049;-75
2022/04/05 01:18:55;;;;;;;0.20;0.00;;;;;;;;;;4996956;28;20018;-72
2022/04/05 01:21:21;;;;;;;0.00;0.00;;;;;;;;;;5011760;28;20228;-69
2022/04/05 01:24:07;;;;;;;0.28;0.22;;;;;;;;;;5020579;23;20424;-72
2022/04/05 01:26:39;;;;;;;0.00;0.00;;;;;;;;;;4992310;28;20073;-71
2022/04/05 01:29:05;;;;;;;0.05;0.03;;;;;;;;;;4997082;28;20227;-73
2022/04/05 01:31:35;;;;;;;0.10;0.00;;;;;;;;;;4980032;28;20113;-72
2022/04/05 01:34:01;;;;;;;0.00;0.00;;;;;;;;;;4978423;28;20048;-72
2022/04/05 01:36:27;;;;;;;0.70;0.52;;;;;;;;;;4979262;28;20456;-73
2022/04/05 01:38:53;;;;;;;0.73;0.20;;;;;;;;;;4980167;28;20090;-72
2022/04/05 01:41:19;;;;;;;0.00;0.00;;;;;;;;;;4976459;28;20509;-73
2022/04/05 01:43:46;;;;;;;0.00;0.00;;;;;;;;;;4989010;28;20027;-73
2022/04/05 01:46:12;;;;;;;0.20;0.10;;;;;;;;;;4978112;28;20030;-74
2022/04/05 01:48:39;;;;;;;0.00;0.00;;;;;;;;;;4993087;28;20209;-73
2022/04/05 01:51:05;;;;;;;1.65;0.43;;;;;;;;;;4974356;28;20138;-76
2022/04/05 01:53:31;;;;;;;0.00;0.00;;;;;;;;;;4993726;28;20041;-73
2022/04/05 01:55:57;;;;;;;0.10;0.10;;;;;;;;;;4979060;28;20018;-71
2022/04/05 01:58:24;;;;;;;1.48;0.47;;;;;;;;;;4975196;28;20109;-72
2022/04/05 02:00:51;;;;;;;0.00;0.00;;;;;;;;;;4986668;28;20101;-72
2022/04/05 02:03:17;;;;;;;0.20;0.00;;;;;;;;;;4977737;28;20413;-71
2022/04/05 02:05:46;;;;;;;0.00;0.00;;;;;;;;;;4981377;28;20014;-71
2022/04/05 02:08:12;;;;;;;0.00;0.00;;;;;;;;;;4978456;28;20034;-73
2022/04/05 02:10:38;;;;;;;0.22;0.22;;;;;;;;;;4976654;28;20341;-71
2022/04/05 02:13:04;;;;;;;1.25;1.02;;;;;;;;;;4977821;28;20026;-74
2022/04/05 02:15:31;;;;;;;0.57;0.25;;;;;;;;;;4970387;28;20029;-74
2022/04/05 02:17:57;;;;;;;0.95;0.20;;;;;;;;;;4976288;28;20222;-74
2022/04/05 02:20:23;;;;;;;0.20;0.20;;;;;;;;;;4978545;28;20023;-74
2022/04/05 02:22:50;;;;;;;0.30;0.22;;;;;;;;;;4981713;28;20365;-74
2022/04/05 02:25:17;;;;;;;1.25;0.40;;;;;;;;;;4988556;28;20329;-75
2022/04/05 02:27:43;;;;;;;0.05;0.00;;;;;;;;;;4975390;28;20037;-75
2022/04/05 02:30:10;;;;;;;0.20;0.20;;;;;;;;;;4982592;28;20026;-73
2022/04/05 02:32:36;;;;;;;0.20;0.20;;;;;;;;;;4961140;28;20094;-73
2022/04/05 02:35:03;;;;;;;0.00;0.00;;;;;;;;;;4976627;28;20668;-76
2022/04/05 02:37:29;;;;;;;0.10;0.00;;;;;;;;;;4976434;28;20015;-74
2022/04/05 02:39:55;;;;;;;0.20;0.10;;;;;;;;;;4975578;28;20126;-75
2022/04/05 02:42:21;;;;;;;1.15;0.60;;;;;;;;;;4974904;28;20278;-74
2022/04/05 02:44:47;;;;;;;0.15;0.15;;;;;;;;;;4979743;28;20019;-72
2022/04/05 02:47:15;;;;;;;0.00;0.00;;;;;;;;;;4975860;28;20026;-73
2022/04/05 02:49:41;;;;;;;0.50;0.15;;;;;;;;;;4976554;28;20320;-73
2022/04/05 02:52:07;;;;;;;0.00;0.00;;;;;;;;;;4977558;28;20078;-73
2022/04/05 02:54:34;;;;;;;0.10;0.00;;;;;;;;;;4976955;28;20269;-73
2022/04/05 02:57:00;;;;;;;0.10;0.10;;;;;;;;;;4976287;28;20019;-72
2022/04/05 02:59:26;;;;;;;0.93;0.10;;;;;;;;;;4975426;28;20049;-73
2022/04/05 03:01:52;;;;;;;0.08;0.05;;;;;;;;;;4976091;28;20027;-76
2022/04/05 03:04:18;;;;;;;0.20;0.03;;;;;;;;;;4994002;28;20088;-74
2022/04/05 03:06:44;;;;;;;0.28;0.10;;;;;;;;;;4984670;28;20090;-74
2022/04/05 03:09:10;;;;;;;0.10;0.00;;;;;;;;;;4989858;28;20037;-73
2022/04/05 03:11:36;;;;;;;0.00;0.00;;;;;;;;;;4976229;28;20023;-73
2022/04/05 03:14:02;;;;;;;0.35;0.28;;;;;;;;;;4973802;28;20034;-75
2022/04/05 03:16:29;;;;;;;0.00;0.00;;;;;;;;;;4978861;28;20380;-73
2022/04/05 03:18:55;;;;;;;0.10;0.00;;;;;;;;;;4975327;28;20027;-73
2022/04/05 03:21:21;;;;;;;0.20;0.13;;;;;;;;;;4976604;28;20023;-72
2022/04/05 03:23:47;;;;;;;0.00;0.00;;;;;;;;;;4975516;28;20065;-74
2022/04/05 03:26:13;;;;;;;0.00;0.00;;;;;;;;;;4974370;28;20314;-73
2022/04/05 03:28:39;;;;;;;0.00;0.00;;;;;;;;;;4992698;28;20024;-72
2022/04/05 03:31:05;;;;;;;0.03;0.00;;;;;;;;;;4993359;28;20026;-74
2022/04/05 03:33:31;;;;;;;0.57;0.45;;;;;;;;;;4959092;28;20189;-74
2022/04/05 03:35:58;;;;;;;0.00;0.00;;;;;;;;;;4991139;28;20046;-73
2022/04/05 03:38:24;;;;;;;0.10;0.10;;;;;;;;;;4991206;28;20074;-72
2022/04/05 03:40:50;;;;;;;0.00;0.00;;;;;;;;;;4984600;28;20081;-73
2022/04/05 03:43:16;;;;;;;0.40;0.20;;;;;;;;;;4976001;28;20042;-71
2022/04/05 03:45:42;;;;;;;1.42;0.10;;;;;;;;;;4987321;28;20030;-72
2022/04/05 03:48:09;;;;;;;0.22;0.10;;;;;;;;;;4975305;28;20383;-72
2022/04/05 03:50:35;;;;;;;0.00;0.00;;;;;;;;;;4976329;28;20025;-73
2022/04/05 03:53:01;;;;;;;0.00;0.00;;;;;;;;;;4986941;28;20117;-74
2022/04/05 03:55:27;;;;;;;0.30;0.20;;;;;;;;;;4987914;28;20050;-73
2022/04/05 03:57:53;;;;;;;0.40;0.00;;;;;;;;;;4989417;28;20027;-73
2022/04/05 04:00:19;;;;;;;0.47;0.10;;;;;;;;;;4997476;28;20030;-74
2022/04/05 04:02:46;;;;;;;0.63;0.20;;;;;;;;;;4988975;28;20083;-73
2022/04/05 04:05:16;;;;;;;0.10;0.00;;;;;;;;;;4978409;28;20221;-77
2022/04/05 04:07:43;;;;;;;0.00;0.00;;;;;;;;;;4994460;28;20074;-76
2022/04/05 04:10:09;;;;;;;0.28;0.17;;;;;;;;;;4996960;28;20018;-72
2022/04/05 04:12:35;;;;;;;0.08;0.08;;;;;;;;;;4990322;28;20022;-72
2022/04/05 04:15:02;;;;;;;0.28;0.17;;;;;;;;;;4990135;28;20026;-74
2022/04/05 04:17:28;;;;;;;0.00;0.00;;;;;;;;;;4982576;28;20023;-72
2022/04/05 04:19:54;;;;;;;0.10;0.00;;;;;;;;;;4981544;28;20029;-72
2022/04/05 04:22:20;;;;;;;0.00;0.00;;;;;;;;;;4980055;28;20022;-72
2022/04/05 04:24:48;;;;;;;2.67;0.10;;;;;;;;;;4980355;28;20065;-72
2022/04/05 04:27:14;;;;;;;0.10;0.00;;;;;;;;;;4986661;28;20018;-72
2022/04/05 04:29:40;;;;;;;0.03;0.00;;;;;;;;;;4978383;28;20317;-72
2022/04/05 04:32:06;;;;;;;0.00;0.00;;;;;;;;;;4985431;28;20018;-75
2022/04/05 04:34:32;;;;;;;0.50;0.50;;;;;;;;;;4989143;28;20042;-73
2022/04/05 04:36:58;;;;;;;0.00;0.00;;;;;;;;;;4985542;28;20153;-72
2022/04/05 04:39:25;;;;;;;0.30;0.17;;;;;;;;;;4977295;28;20023;-73
2022/04/05 04:41:51;;;;;;;0.10;0.00;;;;;;;;;;4986448;28;20414;-72
2022/04/05 04:44:17;;;;;;;0.20;0.00;;;;;;;;;;4979293;28;20038;-71
2022/04/05 04:46:44;;;;;;;0.65;0.35;;;;;;;;;;4964349;28;20294;-72
2022/04/05 04:49:10;;;;;;;0.03;0.00;;;;;;;;;;4980772;28;20018;-72
2022/04/05 04:51:36;;;;;;;0.10;0.00;;;;;;;;;;4978929;28;20041;-74
2022/04/05 04:54:02;;;;;;;0.00;0.00;;;;;;;;;;4978325;28;20078;-73
2022/04/05 04:56:28;;;;;;;0.40;0.13;;;;;;;;;;4981984;28;20014;-72
2022/04/05 04:58:55;;;;;;;0.00;0.00;;;;;;;;;;4981772;28;20022;-73
2022/04/05 05:01:21;;;;;;;3.10;0.22;;;;;;;;;;4981600;28;20031;-75
2022/04/05 05:03:47;;;;;;;0.00;0.00;;;;;;;;;;4980933;28;20034;-71
2022/04/05 05:06:14;;;;;;;0.00;0.00;;;;;;;;;;4977808;28;20132;-74
2022/04/05 05:08:40;;;;;;;0.60;0.28;;;;;;;;;;4963857;28;20061;-76
2022/04/05 05:11:06;;;;;;;0.00;0.00;;;;;;;;;;4981526;28;20354;-74
2022/04/05 05:13:32;;;;;;;0.00;0.00;;;;;;;;;;4978251;28;20022;-76
2022/04/05 05:15:58;;;;;;;1.45;1.35;;;;;;;;;;4979540;28;20085;-74
2022/04/05 05:18:24;;;;;;;0.55;0.20;;;;;;;;;;4978635;28;20377;-74
2022/04/05 05:20:50;;;;;;;0.08;0.00;;;;;;;;;;4976336;28;20302;-73
2022/04/05 05:23:16;;;;;;;0.45;0.20;;;;;;;;;;4977219;28;20329;-75
2022/04/05 05:25:43;;;;;;;0.40;0.15;;;;;;;;;;4976571;28;20034;-73
2022/04/05 05:28:09;;;;;;;0.00;0.00;;;;;;;;;;4988565;28;20011;-74
2022/04/05 05:30:35;;;;;;;0.90;0.90;;;;;;;;;;4980316;28;20019;-74
2022/04/05 05:33:01;;;;;;;0.08;0.00;;;;;;;;;;4981644;28;20302;-77
2022/04/05 05:35:27;;;;;;;0.17;0.10;;;;;;;;;;4977621;28;20467;-74
2022/04/05 05:37:53;;;;;;;0.15;0.08;;;;;;;;;;4980028;28;20077;-78
2022/04/05 05:40:20;;;;;;;1.35;1.27;;;;;;;;;;4988302;28;20037;-73
2022/04/05 05:42:49;;;;;;;0.47;0.10;;;;;;;;;;4985320;28;20023;-76
2022/04/05 05:45:15;;;;;;;0.10;0.10;;;;;;;;;;4979465;28;20811;-77
2022/04/05 05:47:41;;;;;;;0.10;0.00;;;;;;;;;;4995672;28;20332;-81
2022/04/05 05:50:10;;;;;;;0.10;0.00;;;;;;;;;;4982109;28;20038;-79
2022/04/05 05:52:36;;;;;;;0.13;0.00;;;;;;;;;;4975202;28;20026;-82
2022/04/05 05:55:03;;;;;;;0.00;0.00;;;;;;;;;;4980779;28;20062;-79
2022/04/05 05:57:29;;;;;;;0.00;0.00;;;;;;;;;;4986227;28;20010;-78
2022/04/05 05:59:55;;;;;;;0.20;0.10;;;;;;;;;;4981366;28;20031;-75
2022/04/05 06:02:21;;;;;;;0.38;0.17;;;;;;;;;;4981029;28;20022;-77
2022/04/05 06:04:47;;;;;;;0.20;0.13;;;;;;;;;;4984448;28;20031;-72
2022/04/05 06:07:13;;;;;;;0.00;0.00;;;;;;;;;;4978658;28;20469;-76
2022/04/05 06:09:39;;;;;;;0.00;0.00;;;;;;;;;;4976932;28;20297;-73
2022/04/05 06:12:05;;;;;;;0.00;0.00;;;;;;;;;;4980979;28;20023;-77
2022/04/05 06:14:31;;;;;;;0.25;0.10;;;;;;;;;;4984693;28;20031;-75
2022/04/05 06:16:57;;;;;;;0.15;0.00;;;;;;;;;;4982337;28;20073;-78
2022/04/05 06:19:23;;;;;;;0.00;0.00;;;;;;;;;;4978278;28;20330;-75
2022/04/05 06:21:49;;;;;;;0.10;0.10;;;;;;;;;;4978694;28;20018;-76
2022/04/05 06:24:15;;;;;;;0.05;0.05;;;;;;;;;;4986938;28;20356;-76
2022/04/05 06:26:42;;;;;;;0.05;0.00;;;;;;;;;;4978676;28;20070;-80
2022/04/05 06:29:08;;;;;;;0.55;0.10;;;;;;;;;;4980915;28;20065;-76
2022/04/05 06:31:34;;;;;;;0.00;0.00;;;;;;;;;;4988650;28;20360;-77
2022/04/05 06:34:02;;;;;;;0.00;0.00;;;;;;;;;;4981164;28;20041;-77
2022/04/05 06:36:28;;;;;;;;;;;;;;;;;;4982361;28;20018;-79
2022/04/05 06:38:54;;;;;;;0.03;0.00;;;;;;;;;;4981050;28;19910;-77
2022/04/05 06:41:21;;;;;;;0.52;0.22;;;;;;;;;;4990464;28;20018;-76
2022/04/05 06:43:47;;;;;;;0.35;0.10;;;;;;;;;;4979011;28;20014;-77
2022/04/05 06:46:15;;;;;;;0.00;0.00;;;;;;;;;;4976248;28;20094;-80
2022/04/05 06:48:42;;;;;;;0.20;0.13;;;;;;;;;;4968830;28;20411;-77
2022/04/05 06:51:08;;;;;;;0.00;0.00;;;;;;;;;;4975283;28;20022;-80
2022/04/05 06:53:34;;;;;;;0.00;0.00;;;;;;;;;;4980152;28;20034;-75
2022/04/05 06:56:00;;;;;;;1.08;0.10;;;;;;;;;;4979081;28;20086;-76
2022/04/05 06:58:26;;;;;;;0.20;0.10;;;;;;;;;;4961165;28;20011;-79
2022/04/05 07:00:52;;;;;;;0.10;0.10;;;;;;;;;;4986167;28;20027;-76
2022/04/05 07:03:18;;;;;;;0.10;0.03;;;;;;;;;;4988320;28;20018;-76
2022/04/05 07:05:45;;;;;;;0.10;0.08;;;;;;;;;;4989145;28;20328;-78
2022/04/05 07:08:11;;;;;;;0.20;0.10;;;;;;;;;;4977498;28;20175;-76
2022/04/05 07:10:37;;;;;;;0.00;0.00;;;;;;;;;;4972404;28;20243;-75
2022/04/05 07:13:04;;;;;;;0.00;0.00;;;;;;;;;;4962455;28;20026;-75
2022/04/05 07:15:30;;;;;;;0.22;0.20;;;;;;;;;;4975862;28;20310;-76
2022/04/05 07:17:56;;;;;;;0.10;0.00;;;;;;;;;;4982761;28;20080;-76
2022/04/05 07:20:22;;;;;;;1.20;0.17;;;;;;;;;;4990557;28;20041;-78
2022/04/05 07:22:49;;;;;;;0.00;0.00;;;;;;;;;;4990265;28;20049;-77
2022/04/05 07:25:22;;;;;;;0.20;0.10;;;;;;;;;;4985995;28;20336;-75
2022/04/05 07:27:49;;;;;;;0.20;0.20;;;;;;;;;;4983747;28;20019;-75
2022/04/05 07:30:16;;;;;;;0.00;0.00;;;;;;;;;;4988772;28;20022;-76
2022/04/05 07:32:43;;;;;;;1.77;0.30;;;;;;;;;;4976566;28;20042;-77
2022/04/05 07:35:10;;;;;;;0.00;0.00;;;;;;;;;;4974998;28;20023;-77
2022/04/05 07:37:36;;;;;;;0.00;0.00;;;;;;;;;;4984830;28;20041;-75
2022/04/05 07:40:05;;;;;;;0.00;0.00;;;;;;;;;;4975636;28;20023;-76
2022/04/05 07:42:32;;;;;;;0.00;0.00;;;;;;;;;;4986668;28;20026;-76
2022/04/05 07:44:58;;;;;;;0.00;0.00;;;;;;;;;;4978031;28;20060;-76
2022/04/05 07:47:24;;;;;;;0.00;0.00;;;;;;;;;;4987332;28;20093;-74
2022/04/05 07:49:50;;;;;;;0.00;0.00;;;;;;;;;;4978274;28;20041;-77
2022/04/05 07:52:16;;;;;;;0.00;0.00;;;;;;;;;;4977268;28;20065;-76
2022/04/05 07:54:42;;;;;;;0.00;0.00;;;;;;;;;;4979338;28;20306;-76
2022/04/05 07:57:10;;;;;;;0.08;0.00;;;;;;;;;;4976337;28;20022;-77
2022/04/05 07:59:36;;;;;;;0.00;0.00;;;;;;;;;;4978779;28;20260;-74
2022/04/05 08:02:03;;;;;;;0.00;0.00;;;;;;;;;;4987732;28;20093;-77
2022/04/05 08:04:29;;;;;;;0.10;0.10;;;;;;;;;;4973940;28;20646;-74
2022/04/05 08:06:55;;;;;;;0.80;0.20;;;;;;;;;;4989170;28;20072;-74
2022/04/05 08:09:21;;;;;;;0.00;0.00;;;;;;;;;;4972847;28;20045;-75
2022/04/05 08:11:47;;;;;;;0.00;0.00;;;;;;;;;;4986214;28;20022;-76
2022/04/05 08:14:13;;;;;;;0.00;0.00;;;;;;;;;;4982529;28;20069;-76
2022/04/05 08:16:39;;;;;;;0.00;0.00;;;;;;;;;;4988886;28;20389;-74
2022/04/05 08:19:05;;;;;;;0.00;0.00;;;;;;;;;;4979721;28;20019;-77
2022/04/05 08:21:33;;;;;;;0.00;0.00;;;;;;;;;;4982290;28;20029;-78
2022/04/05 08:23:59;;;;;;;0.00;0.00;;;;;;;;;;4973294;28;20085;-76
2022/04/05 08:26:43;;;;;;;0.52;0.52;;;;;;;;;;4976680;28;20214;-74
2022/04/05 08:29:09;;;;;;;0.13;0.03;;;;;;;;;;4976859;28;20336;-75
2022/04/05 08:31:35;;;;;;;0.00;0.00;;;;;;;;;;4983275;28;20116;-75
2022/04/05 08:34:01;;;;;;;0.00;0.00;;;;;;;;;;4996087;28;20042;-78
2022/04/05 08:36:28;;;;;;;0.10;0.03;;;;;;;;;;4978341;28;20027;-72
2022/04/05 08:38:54;;;;;;;0.00;0.00;;;;;;;;;;4986589;28;20019;-74
2022/04/05 08:41:20;;;;;;;0.00;0.00;;;;;;;;;;4982407;28;20029;-75
2022/04/05 08:43:48;;;;;;;0.00;0.00;;;;;;;;;;4986774;28;20041;-75
2022/04/05 08:46:15;;;;;;;0.00;0.00;;;;;;;;;;4976986;28;20241;-75
2022/04/05 08:48:41;;;;;;;0.00;0.00;;;;;;;;;;4980247;28;20107;-76
2022/04/05 08:51:07;;;;;;;0.00;0.00;;;;;;;;;;4981268;28;20006;-78
2022/04/05 08:53:34;;;;;;;0.00;0.00;;;;;;;;;;4988639;28;20148;-74
2022/04/05 08:56:00;;;;;;;0.00;0.00;;;;;;;;;;4980676;28;20015;-76
2022/04/05 08:58:26;;;;;;;0.20;0.00;;;;;;;;;;4977992;28;20022;-74
2022/04/05 09:00:53;;;;;;;0.00;0.00;;;;;;;;;;4985420;28;20325;-78
2022/04/05 09:03:19;;;;;;;0.10;0.10;;;;;;;;;;4979147;28;20026;-74
2022/04/05 09:05:46;;;;;;;0.00;0.00;;;;;;;;;;4987754;28;20042;-81
2022/04/05 09:08:23;;;;;;;0.00;0.00;;;;;;;;;;4983680;28;20023;-75
2022/04/05 09:10:51;;;;;;;0.45;0.00;;;;;;;;;;4975906;28;20022;-75
2022/04/05 09:13:19;;;;;;;0.00;0.00;;;;;;;;;;4981504;28;20066;-77
2022/04/05 09:15:48;;;;;;;0.00;0.00;;;;;;;;;;4990454;28;20100;-77
2022/04/05 09:18:14;;;;;;;0.00;0.00;;;;;;;;;;4985539;28;20061;-76
2022/04/05 09:20:47;;;;;;;0.80;0.00;;;;;;;;;;4984474;28;20025;-77
2022/04/05 09:26:10;;;;;;;0.00;0.00;;;;;;;;;;4985827;28;20070;-81
2022/04/05 09:28:38;;;;;;;0.00;0.00;;;;;;;;;;4984402;28;20050;-78
2022/04/05 09:31:23;;;;;;;0.00;0.00;;;;;;;;;;4985719;28;20018;-81
2022/04/05 09:34:03;;;;;;;0.00;0.00;;;;;;;;;;4984885;28;20098;-81
2022/04/05 09:36:33;;;;;;;0.00;0.00;;;;;;;;;;4984925;28;20021;-80
2022/04/05 09:39:09;;;;;;;0.00;0.00;;;;;;;;;;4973722;28;20546;-77
2022/04/05 09:41:35;;;;;;;0.00;0.00;;;;;;;;;;4982399;28;20090;-81
2022/04/05 09:44:02;;;;;;;0.00;0.00;;;;;;;;;;4979954;28;20072;-79
2022/04/05 09:46:29;;;;;;;0.00;0.00;;;;;;;;;;4980113;28;20023;-78
2022/04/05 09:49:21;;;;;;;0.08;0.08;;;;;;;;;;4981727;28;20026;-80
2022/04/05 09:51:47;;;;;;;0.00;0.00;;;;;;;;;;4978350;28;20026;-79
2022/04/05 09:54:22;;;;;;;0.00;0.00;;;;;;;;;;4980690;28;20053;-81
2022/04/05 09:56:48;;;;;;;0.30;0.15;;;;;;;;;;4983162;28;20025;-79
2022/04/05 09:59:19;;;;;;;0.00;0.00;;;;;;;;;;4976410;28;20019;-81
2022/04/05 10:01:46;;;;;;;0.00;0.00;;;;;;;;;;4976549;28;20034;-80
2022/04/05 10:04:16;;;;;;;0.00;0.00;;;;;;;;;;4980835;28;20314;-83
2022/04/05 10:06:46;;;;;;;0.00;0.00;;;;;;;;;;4980071;28;20022;-82
2022/04/05 10:09:13;;;;;;;0.00;0.00;;;;;;;;;;4979089;28;20022;-80
2022/04/05 10:11:40;;;;;;;0.10;0.00;;;;;;;;;;4982648;28;20026;-82
2022/04/05 10:14:08;;;;;;;0.00;0.00;;;;;;;;;;4980229;28;20019;-80
2022/04/05 10:16:34;;;;;;;0.00;0.00;;;;;;;;;;4975121;28;20030;-78
2022/04/05 10:19:03;;;;;;;0.00;0.00;;;;;;;;;;4979886;28;20010;-79
2022/04/05 10:21:29;;;;;;;2.50;0.13;;;;;;;;;;4978427;28;20022;-78
2022/04/05 10:23:57;;;;;;;1.48;1.38;;;;;;;;;;4979737;28;20064;-78
2022/04/05 10:26:24;;;;;;;0.00;0.00;;;;;;;;;;4983551;28;20233;-81
2022/04/05 10:28:52;;;;;;;0.00;0.00;;;;;;;;;;4982885;28;20068;-84
2022/04/05 10:31:23;;;;;;;0.00;0.00;;;;;;;;;;4979507;28;20021;-81
2022/04/05 10:34:02;;;;;;;0.00;0.00;;;;;;;;;;4985025;28;20038;-79
2022/04/05 10:36:28;;;;;;;;;;;;;;;;;;4982910;28;20021;-82
2022/04/05 10:39:13;;;;;;;0.00;0.00;;;;;;;;;;4980199;28;20181;-81
2022/04/05 10:41:39;;;;;;;0.00;0.00;;;;;;;;;;4981331;28;20123;-78
2022/04/05 10:44:22;;;;;;;0.00;0.00;;;;;;;;;;4980754;28;20285;-79
2022/04/05 10:47:00;;;;;;;0.13;0.00;;;;;;;;;;4982115;28;20015;-81
2022/04/05 10:49:26;;;;;;;;;;;;;;;;;;4977053;28;20138;-77
2022/04/05 10:52:07;;;;;;;0.00;0.00;;;;;;;;;;4987823;28;19901;-78
2022/04/05 10:54:42;;;;;;;0.00;0.00;;;;;;;;;;4981029;28;20064;-78
2022/04/05 10:57:26;;;;;;;0.00;0.00;;;;;;;;;;4979746;28;20030;-78
2022/04/05 10:59:56;;;;;;;0.00;0.00;;;;;;;;;;4986019;28;20026;-77
2022/04/05 11:02:29;;;;;;;0.00;0.00;;;;;;;;;;4961104;28;20042;-76
2022/04/05 11:05:04;;;;;;;0.38;0.10;;;;;;;;;;4981278;28;20052;-77
2022/04/05 11:07:50;;;;;;;0.00;0.00;;;;;;;;;;4978060;28;20023;-75
2022/04/05 11:10:18;;;;;;;0.00;0.00;;;;;;;;;;4984286;28;20261;-76
2022/04/05 11:12:45;;;;;;;0.00;0.00;;;;;;;;;;4975221;28;20269;-76
2022/04/05 11:15:14;;;;;;;0.00;0.00;;;;;;;;;;4979902;28;20031;-78
2022/04/05 11:17:42;;;;;;;0.10;0.00;;;;;;;;;;4985169;28;20096;-75
2022/04/05 11:20:09;;;;;;;0.00;0.00;;;;;;;;;;4986390;28;20082;-77
2022/04/05 11:22:36;;;;;;;0.00;0.00;;;;;;;;;;4988342;28;20022;-76
2022/04/05 11:25:28;;;;;;;0.00;0.00;;;;;;;;;;4955099;28;20231;-83
2022/04/05 11:27:55;;;;;;;0.00;0.00;;;;;;;;;;4953186;29;20329;-76
2022/04/05 11:30:22;;;;;;;0.00;0.00;;;;;;;;;;4943969;29;20027;-80
2022/04/05 11:33:12;;;;;;;0.00;0.00;;;;;;;;;;4949989;29;20269;-80
2022/04/05 11:35:59;;;;;;;0.00;0.00;;;;;;;;;;4944854;29;20031;-77
2022/04/05 11:38:39;;;;;;;0.00;0.00;;;;;;;;;;4946942;29;20042;-76
2022/04/05 11:41:08;;;;;;;0.00;0.00;;;;;;;;;;4951754;29;20030;-77
2022/04/05 11:43:40;;;;;;;0.00;0.00;;;;;;;;;;4959781;28;20019;-76
2022/04/05 11:46:12;;;;;;;0.00;0.00;;;;;;;;;;4940479;29;20016;-78
2022/04/05 11:48:58;;;;;;;0.00;0.00;;;;;;;;;;4958699;28;20070;-76
2022/04/05 11:51:34;;;;;;;0.00;0.00;;;;;;;;;;4947449;29;20074;-78
2022/04/05 11:54:05;;;;;;;0.13;0.13;;;;;;;;;;4941279;28;20111;-75
2022/04/05 11:56:31;;;;;;;0.00;0.00;;;;;;;;;;4941754;29;20288;-76
2022/04/05 11:58:58;;;;;;;0.00;0.00;;;;;;;;;;4941964;29;20027;-79
2022/04/05 12:01:32;;;;;;;0.00;0.00;;;;;;;;;;4951045;29;20019;-80
2022/04/05 12:04:05;;;;;;;0.00;0.00;;;;;;;;;;4938549;29;20106;-73
2022/04/05 12:06:34;;;;;;;0.00;0.00;;;;;;;;;;4955582;28;20371;-81
2022/04/05 12:09:02;;;;;;;0.00;0.00;;;;;;;;;;4949033;29;20011;-76
2022/04/05 12:11:30;;;;;;;0.00;0.00;;;;;;;;;;4955526;29;20058;-76
2022/04/05 12:14:01;;;;;;;0.00;0.00;;;;;;;;;;4960230;28;20036;-77
2022/04/05 12:16:43;;;;;;;0.00;0.00;;;;;;;;;;4959671;28;20016;-77
2022/04/05 12:19:09;;;;;;;0.00;0.00;;;;;;;;;;4955517;28;20020;-76
2022/04/05 12:21:36;;;;;;;0.00;0.00;;;;;;;;;;4926033;29;20203;-74
2022/04/05 12:24:02;;;;;;;0.00;0.00;;;;;;;;;;4947772;28;20242;-79
2022/04/05 12:26:31;;;;;;;0.00;0.00;;;;;;;;;;4948644;28;20035;-77
2022/04/05 12:28:59;;;;;;;0.00;0.00;;;;;;;;;;4977632;28;20054;-77
2022/04/05 12:31:29;;;;;;;0.00;0.00;;;;;;;;;;4975065;28;20028;-78
2022/04/05 12:34:13;;;;;;;0.00;0.00;;;;;;;;;;4979515;28;20022;-78
2022/04/05 12:36:43;;;;;;;0.00;0.00;;;;;;;;;;4978252;28;20112;-78
2022/04/05 12:39:17;;;;;;;0.00;0.00;;;;;;;;;;4949160;28;20013;-83
2022/04/05 12:41:44;;;;;;;0.00;0.00;;;;;;;;;;4947954;28;20030;-80
2022/04/05 12:44:10;;;;;;;0.00;0.00;;;;;;;;;;4947132;28;20332;-80
2022/04/05 12:46:37;;;;;;;0.00;0.00;;;;;;;;;;4945822;28;20147;-77
2022/04/05 12:49:15;;;;;;;0.00;0.00;;;;;;;;;;4949129;28;20022;-79
2022/04/05 12:51:41;;;;;;;0.00;0.00;;;;;;;;;;4974881;28;20030;-76
2022/04/05 12:54:23;;;;;;;0.00;0.00;;;;;;;;;;4972794;28;20036;-75
2022/04/05 12:56:49;;;;;;;0.00;0.00;;;;;;;;;;4976944;28;20084;-75
2022/04/05 12:59:25;;;;;;;0.00;0.00;;;;;;;;;;4946807;28;20925;-78
2022/04/05 13:01:55;;;;;;;0.00;0.00;;;;;;;;;;4951872;28;20025;-79
2022/04/05 13:04:23;;;;;;;0.00;0.00;;;;;;;;;;4977490;28;20228;-80
2022/04/05 13:07:00;;;;;;;0.00;0.00;;;;;;;;;;4974766;28;20143;-73
2022/04/05 13:09:30;;;;;;;0.00;0.00;;;;;;;;;;4949619;28;20023;-78
2022/04/05 13:12:15;;;;;;;0.00;0.00;;;;;;;;;;4952416;28;20241;-78
2022/04/05 13:14:42;;;;;;;0.00;0.00;;;;;;;;;;4975236;28;20041;-78
2022/04/05 13:17:09;;;;;;;0.00;0.00;;;;;;;;;;4949981;28;20727;-81
2022/04/05 13:19:36;;;;;;;0.00;0.00;;;;;;;;;;4968466;28;21254;-80
2022/04/05 13:22:02;;;;;;;0.00;0.00;;;;;;;;;;4950819;28;20028;-83
2022/04/05 13:24:58;;;;;;;0.00;0.00;;;;;;;;;;4946483;28;20074;-77
2022/04/05 13:27:25;;;;;;;0.00;0.00;;;;;;;;;;4940291;28;20068;-77
2022/04/05 13:29:51;;;;;;;0.00;0.00;;;;;;;;;;4947731;28;20019;-76
2022/04/05 13:32:18;;;;;;;0.00;0.00;;;;;;;;;;4980134;28;20352;-77
2022/04/05 13:35:04;;;;;;;0.00;0.00;;;;;;;;;;4946835;28;20037;-77
2022/04/05 13:37:30;;;;;;;0.00;0.00;;;;;;;;;;4973253;28;20031;-78
2022/04/05 13:39:58;;;;;;;0.47;0.47;;;;;;;;;;4949262;28;20022;-76
2022/04/05 13:42:25;;;;;;;0.00;0.00;;;;;;;;;;4952001;28;20089;-77
2022/04/05 13:44:51;;;;;;;0.00;0.00;;;;;;;;;;4946617;28;21183;-79
2022/04/05 13:47:17;;;;;;;0.00;0.00;;;;;;;;;;4978263;28;20036;-74
2022/04/05 13:49:44;;;;;;;2.00;0.10;;;;;;;;;;4977083;28;20006;-78
2022/04/05 13:52:10;;;;;;;0.00;0.00;;;;;;;;;;4947665;28;20383;-78
2022/04/05 13:54:37;;;;;;;0.22;0.05;;;;;;;;;;4947913;28;20038;-79
2022/04/05 13:57:03;;;;;;;0.00;0.00;;;;;;;;;;4975317;28;20045;-77
2022/04/05 13:59:29;;;;;;;0.00;0.00;;;;;;;;;;4967710;28;20022;-78
2022/04/05 14:01:55;;;;;;;0.00;0.00;;;;;;;;;;4948511;28;20271;-79
2022/04/05 14:04:22;;;;;;;0.35;0.00;;;;;;;;;;4954080;28;21093;-78
2022/04/05 14:06:48;;;;;;;0.00;0.00;;;;;;;;;;4973274;28;20085;-78
2022/04/05 14:09:14;;;;;;;0.00;0.00;;;;;;;;;;4946665;28;20099;-80
2022/04/05 14:11:43;;;;;;;0.00;0.00;;;;;;;;;;4977110;28;20025;-78
2022/04/05 14:14:09;;;;;;;;;;;;;;;;;;4977501;28;20085;-78
2022/04/05 14:16:35;;;;;;;0.00;0.00;;;;;;;;;;4947111;28;19901;-77
2022/04/05 14:19:01;;;;;;;0.00;0.00;;;;;;;;;;4977123;28;20336;-81
2022/04/05 14:21:27;;;;;;;0.00;0.00;;;;;;;;;;4948372;28;20033;-79
2022/04/05 14:23:53;;;;;;;0.00;0.00;;;;;;;;;;4946228;28;20062;-77
2022/04/05 14:26:20;;;;;;;0.00;0.00;;;;;;;;;;4973035;28;20117;-77
2022/04/05 14:28:47;;;;;;;0.00;0.00;;;;;;;;;;4946773;28;20030;-77
2022/04/05 14:31:13;;;;;;;0.00;0.00;;;;;;;;;;4946126;28;20018;-78
2022/04/05 14:33:39;;;;;;;0.00;0.00;;;;;;;;;;4946768;28;20029;-78
2022/04/05 14:36:06;;;;;;;0.00;0.00;;;;;;;;;;4943293;28;20033;-77
2022/04/05 14:38:32;;;;;;;0.00;0.00;;;;;;;;;;4942904;28;20334;-77
2022/04/05 14:40:58;;;;;;;0.00;0.00;;;;;;;;;;4945496;28;20563;-80
2022/04/05 14:43:24;;;;;;;0.52;0.32;;;;;;;;;;4946272;28;20026;-78
2022/04/05 14:45:50;;;;;;;0.00;0.00;;;;;;;;;;4974670;28;20405;-85
2022/04/05 14:48:16;;;;;;;0.00;0.00;;;;;;;;;;4950812;28;20217;-79
2022/04/05 14:50:42;;;;;;;0.00;0.00;;;;;;;;;;4974035;28;20026;-83
2022/04/05 14:53:09;;;;;;;0.00;0.00;;;;;;;;;;4968186;28;20218;-76